Time;durP1;ratioP1;P1;durP2;ratioP2;P2;SDS_P1;SDS_P2;PMS_P1;PMS_P2;Temp;Humidity;BMP_temperature;BMP_pressure;BME280_temperature;BME280_humidity;BME280_pressure;Samples;Min_cycle;Max_cycle;Signal;HPM_P1;HPM_P2
2021/08/12 00:00:14;;;;;;;7.03;6.32;;;;;;;12.71;91.78;101793.59;2107903;28;20500;-62
2021/08/12 00:01:14;;;;;;;9.45;7.28;;;;;;;12.70;91.83;101797.13;2107181;28;20082;-63
2021/08/12 00:02:14;;;;;;;8.40;7.60;;;;;;;12.69;91.68;101796.25;2107252;28;20020;-63
2021/08/12 00:03:15;;;;;;;7.87;6.93;;;;;;;12.68;91.36;101804.19;2107939;28;20031;-63
2021/08/12 00:04:18;;;;;;;8.07;7.27;;;;;;;12.69;91.88;101800.66;2107867;28;20366;-63
2021/08/12 00:05:18;;;;;;;6.65;5.85;;;;;;;12.69;91.56;101790.19;2107927;28;20024;-64
2021/08/12 00:06:18;;;;;;;9.17;7.10;;;;;;;12.67;91.42;101798.09;2107378;28;20020;-64
2021/08/12 00:07:20;;;;;;;8.13;6.40;;;;;;;12.69;92.10;101784.97;2098840;28;20016;-63
2021/08/12 00:08:21;;;;;;;7.55;6.75;;;;;;;12.68;92.06;101794.56;2107339;28;20019;-63
2021/08/12 00:09:21;;;;;;;9.23;8.33;;;;;;;12.68;91.82;101785.84;2107867;28;20491;-64
2021/08/12 00:10:21;;;;;;;10.10;6.70;;;;;;;12.68;91.95;101784.09;2106988;28;20527;-63
2021/08/12 00:11:21;;;;;;;7.43;6.57;;;;;;;12.71;91.99;101786.59;2107226;28;20052;-63
2021/08/12 00:12:22;;;;;;;10.50;7.63;;;;;;;12.71;91.95;101783.97;2107900;28;20026;-63
2021/08/12 00:13:22;;;;;;;9.07;8.17;;;;;;;12.72;91.89;101790.06;2107875;28;20077;-63
2021/08/12 00:14:22;;;;;;;9.90;7.07;;;;;;;12.71;91.82;101788.34;2107805;28;20015;-63
2021/08/12 00:15:23;;;;;;;8.37;7.50;;;;;;;12.70;91.64;101787.50;2107166;28;20039;-63
2021/08/12 00:16:23;;;;;;;9.73;7.87;;;;;;;12.71;92.17;101788.34;2107267;28;20016;-62
2021/08/12 00:17:23;;;;;;;8.43;7.30;;;;;;;12.71;92.00;101783.97;2107809;28;20016;-64
2021/08/12 00:18:23;;;;;;;7.13;6.43;;;;;;;12.71;92.31;101788.34;2107858;28;20024;-63
2021/08/12 00:19:24;;;;;;;8.33;7.53;;;;;;;12.72;91.36;101784.81;2107842;28;20022;-63
2021/08/12 00:20:24;;;;;;;7.63;6.83;;;;;;;12.72;92.09;101790.06;2107877;28;20024;-63
2021/08/12 00:21:25;;;;;;;8.57;7.30;;;;;;;12.70;91.49;101792.72;2107728;28;20021;-64
2021/08/12 00:22:25;;;;;;;9.00;7.10;;;;;;;12.74;91.87;101789.09;2107763;28;20385;-63
2021/08/12 00:23:28;;;;;;;8.00;6.70;;;;;;;12.76;91.70;101789.03;2107798;28;20062;-62
2021/08/12 00:24:28;;;;;;;7.45;6.75;;;;;;;12.75;91.60;101789.94;2107793;28;20016;-64
2021/08/12 00:25:28;;;;;;;8.70;7.80;;;;;;;12.76;91.48;101791.66;2107816;28;20024;-63
2021/08/12 00:26:28;;;;;;;8.53;7.63;;;;;;;12.75;91.43;101800.44;2107720;28;20027;-62
2021/08/12 00:27:29;;;;;;;8.73;7.90;;;;;;;12.73;91.49;101786.56;2107768;28;20023;-63
2021/08/12 00:28:29;;;;;;;8.63;7.73;;;;;;;12.74;91.33;101791.72;2107820;28;20023;-63
2021/08/12 00:29:30;;;;;;;9.38;8.18;;;;;;;12.72;91.91;101795.28;2107705;28;20104;-62
2021/08/12 00:30:30;;;;;;;9.73;8.07;;;;;;;12.70;91.46;101792.72;2107734;28;20408;-63
2021/08/12 00:31:32;;;;;;;9.33;8.27;;;;;;;12.69;91.53;101790.19;2106949;28;20089;-64
2021/08/12 00:32:32;;;;;;;9.55;7.05;;;;;;;12.69;91.56;101790.19;2107057;28;20081;-63
2021/08/12 00:33:34;;;;;;;9.60;8.60;;;;;;;12.67;91.82;101787.63;2107790;28;20554;-63
2021/08/12 00:34:34;;;;;;;8.50;7.60;;;;;;;12.66;91.22;101785.91;2107615;28;20405;-63
2021/08/12 00:35:35;;;;;;;8.67;7.87;;;;;;;12.65;91.52;101793.81;2107610;28;20051;-63
2021/08/12 00:36:35;;;;;;;9.63;8.60;;;;;;;12.64;91.49;101794.72;2107042;28;20077;-64
2021/08/12 00:37:35;;;;;;;8.87;8.03;;;;;;;12.61;91.62;101793.06;2107065;28;20074;-64
2021/08/12 00:38:35;;;;;;;8.47;7.73;;;;;;;12.61;91.55;101795.69;2107031;28;20035;-65
2021/08/12 00:39:36;;;;;;;10.33;7.13;;;;;;;12.59;91.73;101795.75;2107091;28;20436;-64
2021/08/12 00:40:37;;;;;;;6.83;5.70;;;;;;;12.58;91.52;101788.81;2107681;28;20032;-65
2021/08/12 00:41:41;;;;;;;8.63;7.82;;;;;;;12.60;91.60;101792.22;2107645;28;20024;-63
2021/08/12 00:42:41;;;;;;;10.35;8.23;;;;;;;12.60;91.39;101791.38;2107629;28;20066;-64
2021/08/12 00:43:41;;;;;;;9.60;8.70;;;;;;;12.62;91.75;101795.63;2106928;28;20028;-64
2021/08/12 00:44:42;;;;;;;9.10;7.43;;;;;;;12.62;91.60;101795.63;2107082;28;20027;-64
2021/08/12 00:45:42;;;;;;;9.23;7.83;;;;;;;12.66;91.66;101798.16;2107645;28;20112;-62
2021/08/12 00:46:42;;;;;;;8.40;7.53;;;;;;;12.68;91.50;101793.69;2106870;28;20024;-63
2021/08/12 00:47:42;;;;;;;8.87;8.00;;;;;;;12.71;91.70;101793.59;2107066;28;20498;-63
2021/08/12 00:48:43;;;;;;;7.60;6.80;;;;;;;12.71;91.37;101793.59;2107561;28;20035;-63
2021/08/12 00:49:43;;;;;;;10.73;9.63;;;;;;;12.72;91.91;101796.16;2106911;28;20024;-63
2021/08/12 00:50:45;;;;;;;9.63;8.07;;;;;;;12.73;91.37;101786.56;2107144;28;20098;-62
2021/08/12 00:51:46;;;;;;;11.90;8.55;;;;;;;12.73;91.71;101786.56;2107547;28;20590;-63
2021/08/12 00:52:47;;;;;;;10.82;6.20;;;;;;;12.70;91.57;101782.25;2107582;28;20031;-63
2021/08/12 00:53:48;;;;;;;9.57;8.67;;;;;;;12.72;91.61;101784.81;2107552;28;20499;-63
2021/08/12 00:54:49;;;;;;;9.52;8.63;;;;;;;12.72;91.84;101792.69;2106734;28;20045;-63
2021/08/12 00:55:49;;;;;;;9.88;8.70;;;;;;;12.71;91.49;101791.84;2106892;28;20476;-62
2021/08/12 00:56:50;;;;;;;11.43;8.98;;;;;;;12.71;91.96;101799.69;2107570;28;20158;-62
2021/08/12 00:57:50;;;;;;;9.75;8.68;;;;;;;12.71;91.18;101793.59;2107513;28;20031;-62
2021/08/12 00:58:52;;;;;;;11.82;9.25;;;;;;;12.72;91.35;101790.06;2107425;28;20031;-63
2021/08/12 00:59:52;;;;;;;10.32;9.05;;;;;;;12.71;91.77;101783.97;2106764;28;20058;-63
2021/08/12 01:00:53;;;;;;;9.43;8.43;;;;;;;12.72;91.59;101790.91;2106920;28;20500;-64
2021/08/12 01:01:57;;;;;;;10.27;9.17;;;;;;;12.76;91.67;101789.03;2107408;28;20032;-64
2021/08/12 01:02:57;;;;;;;10.88;8.95;;;;;;;12.78;91.78;101784.59;2107585;28;20028;-64
2021/08/12 01:04:00;;;;;;;9.88;8.65;;;;;;;12.81;91.71;101787.13;2107477;28;20059;-63
2021/08/12 01:05:01;;;;;;;9.27;8.38;;;;;;;12.82;91.62;101786.19;2107387;28;20038;-64
2021/08/12 01:06:02;;;;;;;9.93;8.30;;;;;;;12.83;91.45;101785.28;2107481;28;20476;-64
2021/08/12 01:07:08;;;;;;;;;;;;;;;12.83;91.59;101787.91;2107925;28;20024;-64
2021/08/12 01:08:18;;;;;;;9.45;8.48;;;;;;;12.84;91.95;101789.63;2107430;28;19962;-63
2021/08/12 01:09:32;;;;;;;9.65;8.10;;;;;;;12.84;91.41;101789.63;2107357;28;20536;-63
2021/08/12 01:10:54;;;;;;;8.88;8.07;;;;;;;12.86;91.21;101787.78;2107284;28;20048;-62
2021/08/12 01:12:04;;;;;;;8.90;8.10;;;;;;;12.88;91.71;101786.00;2107336;28;20032;-63
2021/08/12 01:13:29;;;;;;;8.70;7.85;;;;;;;12.90;91.89;101777.22;2106957;28;20022;-64
2021/08/12 01:14:48;;;;;;;9.50;8.60;;;;;;;12.91;91.55;101786.78;2107356;28;20469;-63
2021/08/12 01:15:53;;;;;;;9.65;7.82;;;;;;;12.91;91.54;101786.78;2107250;28;20028;-64
2021/08/12 01:16:57;;;;;;;9.60;8.25;;;;;;;12.90;91.29;101782.44;2107327;28;20098;-65
2021/08/12 01:18:07;;;;;;;11.35;9.07;;;;;;;12.90;91.64;101783.28;2107562;28;20456;-63
2021/08/12 01:19:35;;;;;;;10.65;8.90;;;;;;;12.91;91.15;101786.78;2107207;28;20043;-63
2021/08/12 01:20:56;;;;;;;9.48;8.25;;;;;;;12.91;91.69;101786.78;2107290;28;20103;-63
2021/08/12 01:22:07;;;;;;;10.32;9.23;;;;;;;12.92;91.63;101785.84;2107369;28;20082;-64
2021/08/12 01:23:12;;;;;;;9.93;8.93;;;;;;;12.91;91.45;101779.78;2107221;28;20365;-63
2021/08/12 01:24:14;;;;;;;10.07;8.88;;;;;;;12.91;91.40;101781.53;2107217;28;20052;-63
2021/08/12 01:25:26;;;;;;;11.65;9.38;;;;;;;12.90;91.41;101782.44;2107312;28;20095;-63
2021/08/12 01:26:31;;;;;;;9.15;8.10;;;;;;;12.90;91.40;101790.31;2106616;28;20082;-63
2021/08/12 01:27:34;;;;;;;9.43;8.48;;;;;;;12.89;91.20;101794.69;2106763;28;20028;-63
2021/08/12 01:28:46;;;;;;;9.77;8.82;;;;;;;12.86;91.69;101785.19;2106570;28;20016;-63
2021/08/12 01:30:03;;;;;;;9.25;8.43;;;;;;;12.85;91.31;101783.47;2106745;28;20028;-63
2021/08/12 01:31:25;;;;;;;10.57;9.50;;;;;;;12.85;91.66;101791.34;2107092;28;20552;-63
2021/08/12 01:32:27;;;;;;;9.25;8.30;;;;;;;12.86;91.61;101784.31;2107157;28;20073;-63
2021/08/12 01:34:09;;;;;;;10.05;9.15;;;;;;;12.85;91.78;101783.47;2107159;28;20047;-63
2021/08/12 01:35:12;;;;;;;10.07;7.60;;;;;;;12.84;91.23;101781.78;2084426;28;20080;-63
2021/08/12 01:36:14;;;;;;;9.52;6.70;;;;;;;12.84;91.76;101787.00;2107150;28;20048;-63
2021/08/12 01:37:16;;;;;;;10.77;8.75;;;;;;;12.84;91.21;101775.66;2107153;28;20095;-63
2021/08/12 01:38:24;;;;;;;11.70;6.55;;;;;;;12.84;91.53;101778.28;2106477;28;20020;-63
2021/08/12 01:39:26;;;;;;;9.82;7.95;;;;;;;12.85;91.73;101780.84;2106593;28;20049;-63
2021/08/12 01:40:30;;;;;;;8.23;6.80;;;;;;;12.84;92.09;101780.91;2107227;28;20108;-63
2021/08/12 01:41:31;;;;;;;12.32;9.18;;;;;;;12.85;91.66;101786.09;2107186;28;20023;-63
2021/08/12 01:42:32;;;;;;;;;;;;;;;12.85;92.20;101785.22;2106949;28;20027;-63
2021/08/12 01:43:33;;;;;;;10.38;9.20;;;;;;;12.87;91.61;101788.66;2106479;28;20377;-63
2021/08/12 01:44:34;;;;;;;11.00;9.90;;;;;;;12.87;91.80;101792.13;2107223;28;20063;-63
2021/08/12 01:45:34;;;;;;;;;;;;;;;12.90;92.21;101792.94;2107665;28;20419;-63
2021/08/12 01:46:36;;;;;;;10.25;9.15;;;;;;;12.93;92.02;101792.81;2107083;28;19908;-63
2021/08/12 01:47:38;;;;;;;10.38;9.32;;;;;;;12.95;92.01;101797.09;2106313;28;20024;-63
2021/08/12 01:48:39;;;;;;;13.27;9.70;;;;;;;12.95;91.74;101796.22;2106503;28;20107;-63
2021/08/12 01:49:41;;;;;;;;;;;;;;;12.97;92.08;101795.25;2107515;28;20059;-63
2021/08/12 01:50:43;;;;;;;;;;;;;;;12.96;91.79;101798.78;2107599;28;19915;-62
2021/08/12 01:51:44;;;;;;;12.60;9.18;;;;;;;13.00;91.79;101794.28;2107033;28;19935;-62
2021/08/12 01:52:48;;;;;;;11.10;9.18;;;;;;;13.00;92.07;101789.03;2107086;28;20024;-63
2021/08/12 01:53:50;;;;;;;9.70;8.80;;;;;;;13.00;91.89;101786.41;2107061;28;20442;-62
2021/08/12 01:54:52;;;;;;;12.18;9.27;;;;;;;13.01;91.55;101790.75;2107026;28;20028;-63
2021/08/12 01:55:53;;;;;;;12.25;9.75;;;;;;;13.01;91.63;101785.53;2106389;28;20504;-63
2021/08/12 01:56:55;;;;;;;10.00;9.00;;;;;;;13.03;91.79;101788.94;2106479;28;20024;-63
2021/08/12 01:57:57;;;;;;;10.88;9.35;;;;;;;13.00;91.94;101783.78;2106975;28;20431;-64
2021/08/12 01:59:00;;;;;;;10.52;9.38;;;;;;;13.00;91.90;101783.78;2107008;28;20107;-63
2021/08/12 02:00:02;;;;;;;10.45;9.45;;;;;;;12.97;91.40;101776.91;2106760;28;20068;-63
2021/08/12 02:01:03;;;;;;;10.00;9.05;;;;;;;12.98;91.72;101783.00;2106982;28;20396;-64
2021/08/12 02:02:05;;;;;;;11.50;9.73;;;;;;;12.96;91.21;101776.97;2106947;28;20035;-63
2021/08/12 02:03:06;;;;;;;11.95;9.52;;;;;;;12.94;91.74;101779.66;2107230;28;20089;-63
2021/08/12 02:04:07;;;;;;;10.88;9.15;;;;;;;12.93;91.49;101777.09;2106990;28;20035;-63
2021/08/12 02:05:10;;;;;;;10.55;9.50;;;;;;;12.91;91.50;101776.28;2107002;28;20024;-63
2021/08/12 02:06:11;;;;;;;11.73;9.13;;;;;;;12.88;91.15;101772.88;2107099;28;20023;-63
2021/08/12 02:07:12;;;;;;;9.45;8.45;;;;;;;12.86;91.29;101771.22;2106946;28;20047;-63
2021/08/12 02:08:13;;;;;;;10.88;9.15;;;;;;;12.86;91.79;101768.59;2106959;28;20020;-64
2021/08/12 02:09:14;;;;;;;9.27;8.30;;;;;;;12.85;91.82;101769.50;2106963;28;20023;-63
2021/08/12 02:10:15;;;;;;;9.63;8.63;;;;;;;12.84;91.76;101760.81;2106867;28;20072;-62
2021/08/12 02:11:16;;;;;;;11.10;8.68;;;;;;;12.85;91.95;101759.91;2106899;28;20116;-63
2021/08/12 02:12:16;;;;;;;10.35;8.90;;;;;;;12.81;91.22;101763.56;2106157;28;20024;-63
2021/08/12 02:13:18;;;;;;;9.87;8.87;;;;;;;12.78;91.96;101758.41;2106361;28;20024;-63
2021/08/12 02:14:18;;;;;;;10.82;9.02;;;;;;;12.76;91.46;101752.38;2106279;28;20364;-63
2021/08/12 02:15:18;;;;;;;10.13;9.13;;;;;;;12.73;91.37;101750.72;2106357;28;20027;-63
2021/08/12 02:16:18;;;;;;;10.73;9.63;;;;;;;12.73;91.80;101752.50;2106859;28;20481;-63
2021/08/12 02:17:18;;;;;;;11.03;9.87;;;;;;;12.70;91.63;101742.13;2106881;28;20028;-63
2021/08/12 02:18:19;;;;;;;11.93;9.60;;;;;;;12.70;91.83;101744.75;2106883;28;20032;-63
2021/08/12 02:19:19;;;;;;;9.90;8.93;;;;;;;12.66;91.66;101738.75;2106917;28;20035;-64
2021/08/12 02:20:19;;;;;;;10.50;9.43;;;;;;;12.62;91.63;101743.28;2106885;28;20031;-63
2021/08/12 02:21:36;;;;;;;9.67;8.77;;;;;;;12.59;92.18;101742.53;2106990;28;20270;-63
2021/08/12 02:22:43;;;;;;;10.90;9.60;;;;;;;12.57;92.07;101736.50;2106190;28;20051;-63
2021/08/12 02:23:58;;;;;;;11.00;9.77;;;;;;;12.54;92.66;101740.09;2106233;28;20024;-63
2021/08/12 02:25:07;;;;;;;10.55;9.45;;;;;;;12.51;92.30;101734.09;2106163;28;20098;-64
2021/08/12 02:26:11;;;;;;;11.27;10.02;;;;;;;12.48;92.29;101735.06;2106853;28;20024;-62
2021/08/12 02:27:15;;;;;;;10.90;9.00;;;;;;;12.46;92.01;101736.88;2106962;28;20020;-64
2021/08/12 02:28:17;;;;;;;9.88;8.88;;;;;;;12.46;92.28;101736.88;2106786;28;20469;-63
2021/08/12 02:29:19;;;;;;;9.35;8.45;;;;;;;12.43;92.17;101732.63;2106968;28;20058;-63
2021/08/12 02:30:19;;;;;;;10.02;9.13;;;;;;;12.43;91.96;101737.00;2106802;28;20499;-63
2021/08/12 02:31:21;;;;;;;12.77;10.68;;;;;;;12.40;92.27;101737.97;2106742;28;20032;-63
2021/08/12 02:32:28;;;;;;;10.73;9.68;;;;;;;12.39;92.94;101731.03;2106819;28;20469;-61
2021/08/12 02:33:34;;;;;;;10.13;9.20;;;;;;;12.39;92.49;101732.78;2106863;28;20081;-63
2021/08/12 02:34:35;;;;;;;9.93;9.02;;;;;;;12.36;92.90;101734.59;2106941;28;20051;-64
2021/08/12 02:35:37;;;;;;;11.35;9.70;;;;;;;12.36;92.59;101734.59;2106078;28;20085;-63
2021/08/12 02:36:40;;;;;;;10.50;9.52;;;;;;;12.35;92.75;101737.25;2106220;28;20027;-63
2021/08/12 02:37:42;;;;;;;11.77;9.65;;;;;;;12.34;92.91;101733.81;2106818;28;20024;-63
2021/08/12 02:38:45;;;;;;;12.10;9.27;;;;;;;12.32;92.36;101730.38;2106130;28;20146;-63
2021/08/12 02:39:46;;;;;;;9.82;8.75;;;;;;;12.32;93.04;101740.00;2106160;28;20062;-63
2021/08/12 02:40:47;;;;;;;;;;;;;;;12.31;92.64;101739.13;2107275;28;20024;-63
2021/08/12 02:41:48;;;;;;;12.88;9.88;;;;;;;12.32;92.69;101735.59;2106827;28;19908;-62
2021/08/12 02:42:49;;;;;;;9.80;8.63;;;;;;;12.29;92.64;101727.88;2106921;28;20383;-63
2021/08/12 02:43:51;;;;;;;9.55;8.55;;;;;;;12.31;92.66;101743.50;2106713;28;20027;-63
2021/08/12 02:44:54;;;;;;;11.18;10.07;;;;;;;12.29;92.54;101735.75;2106766;28;20439;-62
2021/08/12 02:45:57;;;;;;;13.43;9.98;;;;;;;12.30;93.04;101747.91;2106705;28;20388;-63
2021/08/12 02:47:03;;;;;;;13.38;11.15;;;;;;;12.31;93.41;101743.50;2106769;28;20019;-63
2021/08/12 02:48:07;;;;;;;10.95;8.57;;;;;;;12.31;93.04;101741.75;2106837;28;20465;-63
2021/08/12 02:49:08;;;;;;;9.05;7.70;;;;;;;12.30;92.97;101742.66;2106726;28;20044;-63
2021/08/12 02:50:10;;;;;;;14.07;9.68;;;;;;;12.32;93.07;101743.47;2106765;28;20081;-64
2021/08/12 02:51:12;;;;;;;8.68;7.88;;;;;;;12.32;92.92;101740.00;2106702;28;20035;-63
2021/08/12 02:52:14;;;;;;;10.57;9.65;;;;;;;12.32;93.00;101746.06;2106763;28;20020;-63
2021/08/12 02:53:15;;;;;;;9.77;8.90;;;;;;;12.31;93.39;101739.13;2106708;28;20020;-63
2021/08/12 02:54:15;;;;;;;10.15;8.73;;;;;;;12.30;93.04;101742.66;2106694;28;20020;-63
2021/08/12 02:55:18;;;;;;;9.05;8.02;;;;;;;12.29;92.86;101734.88;2106753;28;20016;-63
2021/08/12 02:56:19;;;;;;;11.52;7.35;;;;;;;12.29;93.17;101740.97;2106706;28;20058;-62
2021/08/12 02:57:21;;;;;;;9.73;7.82;;;;;;;12.31;93.13;101752.22;2106804;28;20020;-63
2021/08/12 02:58:22;;;;;;;;;;;;;;;12.29;93.48;101746.22;2106467;28;20484;-63
2021/08/12 02:59:24;;;;;;;9.98;8.95;;;;;;;12.29;92.87;101740.97;2106199;28;19915;-62
2021/08/12 03:00:24;;;;;;;9.05;8.15;;;;;;;12.30;92.91;101742.66;2106563;28;20034;-63
2021/08/12 03:01:26;;;;;;;8.82;7.88;;;;;;;12.30;93.40;101737.44;2106620;28;20027;-63
2021/08/12 03:02:28;;;;;;;9.32;7.82;;;;;;;12.30;92.97;101732.19;2106622;28;20103;-63
2021/08/12 03:03:28;;;;;;;;;;;;;;;12.30;93.39;101739.19;2107115;28;20028;-63
2021/08/12 03:04:29;;;;;;;10.20;9.17;;;;;;;12.29;93.46;101740.97;2106740;28;19919;-62
2021/08/12 03:05:31;;;;;;;9.82;8.30;;;;;;;12.26;92.63;101733.22;2106746;28;20089;-63
2021/08/12 03:06:33;;;;;;;10.50;9.55;;;;;;;12.26;93.04;101735.84;2106732;28;20027;-63
2021/08/12 03:07:34;;;;;;;14.35;9.93;;;;;;;12.26;92.86;101735.84;2106705;28;20024;-63
2021/08/12 03:08:37;;;;;;;11.77;8.43;;;;;;;12.25;93.28;101738.50;2106624;28;20016;-62
2021/08/12 03:09:39;;;;;;;10.90;7.93;;;;;;;12.23;92.87;101735.94;2106491;28;20020;-62
2021/08/12 03:10:40;;;;;;;11.40;9.45;;;;;;;12.23;93.16;101735.94;2106649;28;20538;-62
2021/08/12 03:11:41;;;;;;;10.98;9.80;;;;;;;12.23;92.74;101735.94;2106564;28;20489;-63
2021/08/12 03:12:41;;;;;;;10.77;8.75;;;;;;;12.21;92.55;101737.75;2106641;28;20028;-62
2021/08/12 03:13:46;;;;;;;11.57;10.32;;;;;;;12.20;92.97;101741.28;2106603;28;20020;-63
2021/08/12 03:14:49;;;;;;;12.40;9.98;;;;;;;12.19;93.43;101734.34;2106625;28;20073;-62
2021/08/12 03:15:50;;;;;;;12.13;10.05;;;;;;;12.19;93.07;101744.81;2106620;28;20103;-63
2021/08/12 03:16:51;;;;;;;12.02;9.73;;;;;;;12.18;93.17;101743.09;2106003;28;20577;-63
2021/08/12 03:17:52;;;;;;;11.48;10.23;;;;;;;12.18;93.49;101738.72;2106133;28;20055;-63
2021/08/12 03:18:53;;;;;;;11.10;9.35;;;;;;;12.17;93.18;101731.78;2106004;28;20119;-62
2021/08/12 03:19:54;;;;;;;12.68;9.48;;;;;;;12.14;92.74;101737.09;2106047;28;20024;-63
2021/08/12 03:20:54;;;;;;;11.17;10.07;;;;;;;12.14;93.44;101733.66;2106638;28;20031;-63
2021/08/12 03:22:03;;;;;;;9.60;8.70;;;;;;;12.13;93.04;101734.53;2106688;28;20016;-63
2021/08/12 03:23:03;;;;;;;11.07;8.48;;;;;;;12.12;93.67;101732.84;2106622;28;20276;-64
2021/08/12 03:24:04;;;;;;;11.50;9.80;;;;;;;12.10;93.00;101727.66;2106533;28;20020;-63
2021/08/12 03:25:05;;;;;;;10.40;9.40;;;;;;;12.09;93.53;101718.97;2106693;28;20412;-62
2021/08/12 03:26:06;;;;;;;10.40;9.30;;;;;;;12.09;93.43;101721.59;2106632;28;20050;-63
2021/08/12 03:27:12;;;;;;;10.93;9.83;;;;;;;12.08;93.38;101719.84;2106678;28;20036;-63
2021/08/12 03:28:13;;;;;;;9.90;8.98;;;;;;;12.09;93.53;101718.97;2106539;28;20096;-63
2021/08/12 03:29:13;;;;;;;11.03;8.50;;;;;;;12.09;93.52;101712.88;2106481;28;20020;-63
2021/08/12 03:30:14;;;;;;;13.33;8.80;;;;;;;12.06;93.39;101712.97;2105969;28;20024;-62
2021/08/12 03:31:14;;;;;;;9.98;8.95;;;;;;;12.02;93.36;101717.44;2105815;28;20074;-62
2021/08/12 03:32:14;;;;;;;10.53;9.47;;;;;;;12.00;93.37;101723.63;2105917;28;20040;-63
2021/08/12 03:33:14;;;;;;;13.53;10.30;;;;;;;11.96;93.64;101725.50;2106558;28;20415;-63
2021/08/12 03:34:14;;;;;;;11.20;10.07;;;;;;;11.92;93.65;101721.28;2106540;28;20088;-62
2021/08/12 03:35:15;;;;;;;9.93;8.93;;;;;;;11.91;94.16;101725.63;2106558;28;20016;-62
2021/08/12 03:36:15;;;;;;;11.13;10.03;;;;;;;11.91;93.42;101724.81;2106664;28;20020;-61
2021/08/12 03:37:16;;;;;;;12.80;9.43;;;;;;;11.89;93.97;101723.97;2107544;28;20016;-63
2021/08/12 03:38:16;;;;;;;10.18;9.13;;;;;;;11.85;93.50;101731.94;2107573;28;20020;-62
2021/08/12 03:39:17;;;;;;;11.63;10.38;;;;;;;11.83;93.85;101733.75;2108112;28;20078;-62
2021/08/12 03:40:17;;;;;;;11.37;10.13;;;;;;;11.81;93.55;101727.72;2108207;28;20020;-62
2021/08/12 03:41:17;;;;;;;11.27;8.87;;;;;;;11.80;93.94;101731.25;2108100;28;20027;-62
2021/08/12 03:42:18;;;;;;;11.47;10.13;;;;;;;11.80;93.56;101720.78;2108141;28;20016;-62
2021/08/12 03:43:18;;;;;;;12.77;10.17;;;;;;;11.81;93.67;101719.84;2108073;28;20026;-62
2021/08/12 03:44:18;;;;;;;11.23;10.07;;;;;;;11.80;93.43;101720.78;2108186;28;20397;-61
2021/08/12 03:45:19;;;;;;;11.03;9.93;;;;;;;11.80;93.58;101727.78;2108168;28;20462;-62
2021/08/12 03:46:19;;;;;;;9.50;8.60;;;;;;;11.78;93.80;101725.22;2108080;28;20020;-62
2021/08/12 03:47:19;;;;;;;11.30;10.13;;;;;;;11.77;93.79;101731.34;2108058;28;20321;-63
2021/08/12 03:48:20;;;;;;;10.60;9.60;;;;;;;11.74;93.91;101728.84;2108124;28;20032;-61
2021/08/12 03:49:20;;;;;;;10.43;8.83;;;;;;;11.72;93.39;101726.28;2108077;28;20020;-61
2021/08/12 03:50:20;;;;;;;10.33;8.07;;;;;;;11.72;93.77;101736.72;2108008;28;20384;-61
2021/08/12 03:51:20;;;;;;;10.60;7.03;;;;;;;11.70;93.47;101733.31;2108001;28;20362;-62
2021/08/12 03:52:21;;;;;;;12.47;7.40;;;;;;;11.70;93.55;101732.44;2108016;28;20089;-62
2021/08/12 03:53:23;;;;;;;10.40;9.32;;;;;;;11.69;93.74;101730.72;2108118;28;20380;-62
2021/08/12 03:54:23;;;;;;;10.55;9.27;;;;;;;11.67;93.78;101732.56;2107973;28;20016;-62
2021/08/12 03:55:24;;;;;;;10.70;9.40;;;;;;;11.67;93.47;101727.34;2108033;28;20055;-62
2021/08/12 03:56:24;;;;;;;10.90;9.03;;;;;;;11.67;93.81;101732.56;2108055;28;20145;-62
2021/08/12 03:57:24;;;;;;;8.88;6.68;;;;;;;11.65;93.84;101739.59;2107912;28;20024;-63
2021/08/12 03:58:24;;;;;;;9.20;7.20;;;;;;;11.62;94.07;101734.44;2107938;28;20023;-62
2021/08/12 03:59:25;;;;;;;9.30;6.90;;;;;;;11.63;93.38;101738.78;2107205;28;20474;-61
2021/08/12 04:00:25;;;;;;;7.83;7.03;;;;;;;11.62;93.74;101735.31;2107352;28;20023;-64
2021/08/12 04:01:25;;;;;;;9.88;8.52;;;;;;;11.62;93.67;101735.31;2107935;28;20012;-63
2021/08/12 04:02:26;;;;;;;8.77;7.80;;;;;;;11.63;93.65;101738.78;2107940;28;20077;-63
2021/08/12 04:03:26;;;;;;;10.20;8.23;;;;;;;11.62;93.74;101734.44;2107928;28;20060;-62
2021/08/12 04:04:27;;;;;;;11.03;9.33;;;;;;;11.64;93.94;101737.88;2107950;28;20085;-64
2021/08/12 04:05:27;;;;;;;10.27;8.05;;;;;;;11.65;93.82;101739.59;2107967;28;20024;-62
2021/08/12 04:06:28;;;;;;;9.97;8.80;;;;;;;11.63;93.55;101738.78;2107936;28;20020;-61
2021/08/12 04:07:28;;;;;;;11.03;8.90;;;;;;;11.62;93.48;101729.22;2107971;28;20020;-62
2021/08/12 04:08:30;;;;;;;11.00;9.90;;;;;;;11.64;93.90;101737.88;2108054;28;20145;-62
2021/08/12 04:09:31;;;;;;;10.43;9.32;;;;;;;11.64;93.70;101732.66;2107811;28;20024;-62
2021/08/12 04:10:31;;;;;;;13.30;8.63;;;;;;;11.62;94.07;101737.06;2107771;28;20044;-61
2021/08/12 04:11:31;;;;;;;11.47;9.43;;;;;;;11.64;93.89;101736.13;2107733;28;20031;-62
2021/08/12 04:12:32;;;;;;;11.33;9.17;;;;;;;11.65;94.04;101735.22;2107807;28;20050;-62
2021/08/12 04:13:32;;;;;;;10.77;9.67;;;;;;;11.66;93.50;101738.66;2107828;28;20049;-62
2021/08/12 04:14:32;;;;;;;9.70;8.00;;;;;;;11.65;93.47;101740.44;2107214;28;20028;-61
2021/08/12 04:15:32;;;;;;;8.70;7.47;;;;;;;11.64;93.69;101732.66;2107271;28;20076;-61
2021/08/12 04:16:34;;;;;;;10.30;8.83;;;;;;;11.65;94.05;101740.44;2107793;28;20445;-61
2021/08/12 04:17:34;;;;;;;9.60;8.60;;;;;;;11.66;94.14;101736.06;2107749;28;20028;-61
2021/08/12 04:18:34;;;;;;;9.23;8.20;;;;;;;11.67;94.08;101737.78;2107861;28;20339;-62
2021/08/12 04:19:35;;;;;;;11.83;9.33;;;;;;;11.66;94.47;101741.28;2107176;28;20028;-62
2021/08/12 04:20:35;;;;;;;11.00;8.70;;;;;;;11.67;94.17;101743.03;2107257;28;20035;-62
2021/08/12 04:21:35;;;;;;;11.10;9.57;;;;;;;11.68;93.88;101744.72;2107803;28;20021;-61
2021/08/12 04:22:35;;;;;;;12.50;9.83;;;;;;;11.69;93.73;101741.19;2107845;28;20034;-61
2021/08/12 04:23:36;;;;;;;11.40;10.30;;;;;;;11.68;94.07;101742.09;2107103;28;20123;-60
2021/08/12 04:24:36;;;;;;;10.33;9.00;;;;;;;11.69;94.17;101741.19;2107114;28;20057;-61
2021/08/12 04:25:36;;;;;;;9.77;8.87;;;;;;;11.68;94.30;101742.09;2107758;28;20024;-61
2021/08/12 04:26:36;;;;;;;9.87;8.87;;;;;;;11.69;93.38;101730.72;2107096;28;20016;-62
2021/08/12 04:27:38;;;;;;;10.37;9.27;;;;;;;11.69;94.14;101739.44;2107204;28;20024;-61
2021/08/12 04:28:38;;;;;;;9.52;7.35;;;;;;;11.67;94.00;101732.56;2107728;28;20069;-62
2021/08/12 04:29:38;;;;;;;10.73;9.63;;;;;;;11.68;93.77;101736.88;2107701;28;20434;-61
2021/08/12 04:30:39;;;;;;;9.77;8.83;;;;;;;11.69;94.29;101743.81;2107703;28;20056;-60
2021/08/12 04:31:39;;;;;;;10.75;9.43;;;;;;;11.69;93.73;101736.84;2107641;28;20077;-62
2021/08/12 04:32:39;;;;;;;11.37;10.17;;;;;;;11.73;93.97;101742.81;2107820;28;20031;-61
2021/08/12 04:33:39;;;;;;;10.77;9.77;;;;;;;11.74;94.43;101743.66;2107787;28;20107;-61
2021/08/12 04:34:40;;;;;;;11.00;9.50;;;;;;;11.75;94.19;101745.38;2107698;28;20035;-62
2021/08/12 04:35:40;;;;;;;12.63;11.33;;;;;;;11.75;94.21;101742.75;2107082;28;20028;-62
2021/08/12 04:36:40;;;;;;;11.20;9.80;;;;;;;11.78;93.74;101746.13;2107121;28;20032;-62
2021/08/12 04:37:44;;;;;;;13.33;10.37;;;;;;;11.78;93.99;101743.53;2107640;28;20103;-62
2021/08/12 04:38:45;;;;;;;8.57;7.72;;;;;;;11.82;93.96;101742.50;2107630;28;20028;-62
2021/08/12 04:39:45;;;;;;;8.65;7.75;;;;;;;11.82;93.71;101747.75;2107603;28;20061;-60
2021/08/12 04:40:45;;;;;;;9.97;8.97;;;;;;;11.84;93.99;101751.16;2107647;28;20468;-61
2021/08/12 04:41:46;;;;;;;10.70;8.97;;;;;;;11.85;93.98;101755.47;2107672;28;20380;-62
2021/08/12 04:42:49;;;;;;;10.93;9.80;;;;;;;11.83;93.88;101746.84;2107669;28;20054;-62
2021/08/12 04:43:49;;;;;;;12.48;10.07;;;;;;;11.87;94.14;101754.59;2107649;28;20369;-61
2021/08/12 04:44:49;;;;;;;10.60;9.60;;;;;;;11.87;93.88;101754.59;2107634;28;20058;-60
2021/08/12 04:45:50;;;;;;;10.33;9.00;;;;;;;11.88;94.11;101748.44;2106930;28;20038;-61
2021/08/12 04:46:50;;;;;;;9.17;7.53;;;;;;;11.88;93.91;101748.44;2107045;28;20024;-61
2021/08/12 04:47:50;;;;;;;8.87;6.80;;;;;;;11.90;93.93;101751.88;2107188;28;20427;-61